Portada
METAR-TAF:

METAR-TAF

Aeroports :

Bermudes, Bermudes

latitud: 32-22N, longitud: 064-41W, altitud: 6 m

Observació

L'informe es va fer fa 44 minuts, a les 15:55 UTC
Vent 4 kt del Sud
Temperatura 30°C
Humitat 70%
Pressió 1023 hPa
Visibilitat 10 km o més
Escasses núvols a una alçada de 2300 ft, Cumulus congestus.
Núvols disperses a una alçada de 30000 ft
xàfecs en les proximitats

METAR: TXKF 191555Z 19004KT 9999 VCSH FEW023TCU SCT300 30/24 Q1023 RMK TCU STNR SW

Hora: 13:39 (16:39 UTC)

Pronòstic

L'informe es va fer fa 3 hores i 1 minuts, a les 13:38 UTC
Pronòstic vàlid del 19 a les 13 UTC al 20 a les 12 UTC
Vent 4 kt del Sud/Sud-Est
Visibilitat 10 km o més
Núvols disperses a una alçada de 1800 ft
Probabilitat 40% :
Temporalment
l' 19 a les 13 UTC al 19 a les 16 UTC
Vent 10 kt del Oest/Nord-Oest
Visibilitat: 8000 m
Cel ennuvolat a una alçada de 1800 ft
xàfecs de pluja

TAF: TXKF 191338Z 1913/2012 16004KT 9999 SCT018 PROB40 TEMPO 1913/1916 29010KT 8000 SHRA BKN018

Observacions i pronòstics meteorològics de més de 4000 aeroports (METAR i TAF).

Les estacions disponibles són els punts grocs i vermells al mapa.

Posi el ratolí al punt desitjat per veure el nom de l'estació.

Feu clic per veure les observacions i els pronòstics meteorològics.

Per canviar el mapa: feu clic els botons verds amb una creu de color negre per apropar; al botó verd amb un guió per allunyar la imatge; o en les fletxes verdes per a mapes adjacents.


METAR-TAF: